createdAt,value
2018-01-25T04:32:41.398Z,3.85
2018-01-25T04:35:09.160Z,3.15
2018-01-25T04:37:37.026Z,2.17
2018-01-25T04:40:04.789Z,7.05
2018-01-25T04:42:32.551Z,3.00
2018-01-25T04:45:00.416Z,3.47
2018-01-25T04:47:28.179Z,4.65
2018-01-25T04:49:55.942Z,4.37
2018-01-25T04:52:23.705Z,5.65
2018-01-25T04:54:51.468Z,2.25
2018-01-25T04:57:19.332Z,4.07
2018-01-25T04:59:47.096Z,3.53
2018-01-25T05:02:15.056Z,5.65
2018-01-25T05:04:42.827Z,3.05
2018-01-25T05:07:10.590Z,3.10
2018-01-25T05:09:38.454Z,6.80
2018-01-25T05:12:06.217Z,3.78
2018-01-25T05:14:33.983Z,4.20
2018-01-25T05:17:02.767Z,3.37
2018-01-25T05:19:30.531Z,4.00
2018-01-25T05:21:58.293Z,3.37
2018-01-25T05:24:26.158Z,4.65
2018-01-25T05:26:53.970Z,5.53
2018-01-25T05:29:22.504Z,5.03
2018-01-25T05:31:50.369Z,3.12
2018-01-25T05:34:18.132Z,5.97
2018-01-25T05:36:45.997Z,3.28
2018-01-25T05:39:13.761Z,6.60
2018-01-25T05:41:41.625Z,2.83
2018-01-25T05:44:09.390Z,2.87
2018-01-25T05:46:37.151Z,3.97
2018-01-25T05:49:04.983Z,5.87
2018-01-25T05:51:32.778Z,3.83
2018-01-25T05:54:00.542Z,4.80
2018-01-25T05:56:28.304Z,5.43
2018-01-25T05:58:56.114Z,3.60
2018-01-25T06:01:24.649Z,7.37
2018-01-25T06:03:52.514Z,4.30
2018-01-25T06:06:20.380Z,4.53
2018-01-25T06:08:48.143Z,5.97
2018-01-25T06:11:16.008Z,4.68
2018-01-25T06:13:44.590Z,3.70
2018-01-25T06:16:12.353Z,4.65
2018-01-25T06:18:40.269Z,6.28
2018-01-25T06:21:08.801Z,5.80
2018-01-25T06:23:36.563Z,6.87
2018-01-25T06:26:04.429Z,10.05
2018-01-25T06:28:32.499Z,4.60
2018-01-25T06:31:00.261Z,6.70
2018-01-25T06:33:28.127Z,3.33
2018-01-25T06:35:55.891Z,2.72
2018-01-25T06:38:23.756Z,3.30
2018-01-25T06:40:51.519Z,4.12
2018-01-25T06:43:19.281Z,5.57
2018-01-25T06:45:47.146Z,3.67
2018-01-25T06:48:17.475Z,7.22
2018-01-25T06:50:48.919Z,4.68
2018-01-25T06:53:17.705Z,5.90
2018-01-25T06:55:45.570Z,3.90
2018-01-25T06:58:13.333Z,5.00
2018-01-25T07:00:41.032Z,3.10
2018-01-25T07:03:09.678Z,4.45
2018-01-25T07:05:37.442Z,7.30
2018-01-25T07:08:05.205Z,4.37
2018-01-25T07:10:32.967Z,3.30
2018-01-25T07:13:00.731Z,5.18
2018-01-25T07:15:28.595Z,7.85
2018-01-25T07:17:56.359Z,4.68
2018-01-25T07:20:24.122Z,6.18
2018-01-25T07:22:51.987Z,4.90
2018-01-25T07:25:19.750Z,4.80
2018-01-25T07:27:47.566Z,10.05
2018-01-25T07:30:16.197Z,4.90
2018-01-25T07:32:43.960Z,3.50
2018-01-25T07:35:11.826Z,6.85
2018-01-25T07:37:39.588Z,5.57
2018-01-25T07:40:07.351Z,6.62
2018-01-25T07:42:35.216Z,5.40
2018-01-25T07:45:02.980Z,3.25
2018-01-25T07:47:32.329Z,4.47
2018-01-25T07:50:00.349Z,5.25
2018-01-25T07:52:28.113Z,6.25
2018-01-25T07:54:55.875Z,5.82
2018-01-25T08:00:26.215Z,4.45
2018-01-25T08:02:54.083Z,5.15
2018-01-25T08:05:21.845Z,3.22
2018-01-25T08:07:49.607Z,3.95
2018-01-25T08:10:17.473Z,4.80
2018-01-25T08:12:45.235Z,4.90
2018-01-25T08:15:13.000Z,7.28
2018-01-25T08:17:40.762Z,3.00
2018-01-25T08:20:08.525Z,2.85
2018-01-25T08:22:36.390Z,6.18
2018-01-25T08:25:04.154Z,4.95
2018-01-25T08:27:31.916Z,3.50
2018-01-25T08:29:59.987Z,3.70
2018-01-25T08:32:27.749Z,4.82
2018-01-25T08:34:55.511Z,5.70
2018-01-25T08:37:23.378Z,3.78
2018-01-25T08:39:51.141Z,6.60
2018-01-25T08:42:18.907Z,4.12
2018-01-25T08:44:46.770Z,10.88
2018-01-25T08:47:14.531Z,4.97
2018-01-25T08:49:42.293Z,8.70
2018-01-25T08:52:10.107Z,4.03
2018-01-25T08:54:37.863Z,5.50
2018-01-25T08:57:06.506Z,4.03
2018-01-25T08:59:34.371Z,6.50
2018-01-25T09:02:02.142Z,5.85
2018-01-25T09:04:29.897Z,4.62
2018-01-25T09:06:57.699Z,3.00
2018-01-25T09:09:26.244Z,7.07
2018-01-25T09:11:54.107Z,4.55
2018-01-25T09:14:21.870Z,3.22
2018-01-25T09:16:49.634Z,4.85
2018-01-25T09:19:17.498Z,5.45
2018-01-25T09:21:45.264Z,6.25
2018-01-25T09:24:13.024Z,4.45
2018-01-25T09:26:40.889Z,3.80
2018-01-25T09:29:08.652Z,4.32
2018-01-25T09:31:36.417Z,4.65
2018-01-25T09:34:04.279Z,9.98
2018-01-25T09:36:32.041Z,4.65
2018-01-25T09:38:59.804Z,5.60
2018-01-25T09:41:27.684Z,5.00
2018-01-25T09:43:55.432Z,5.90
2018-01-25T09:46:23.197Z,6.05
2018-01-25T09:48:51.060Z,5.35
2018-01-25T09:51:18.824Z,9.52
2018-01-25T09:53:46.587Z,5.80
2018-01-25T09:56:14.453Z,5.10
2018-01-25T09:58:42.214Z,4.95
2018-01-25T10:01:10.080Z,5.85
2018-01-25T10:03:37.843Z,3.60
2018-01-25T10:06:05.609Z,4.57
2018-01-25T10:08:33.473Z,3.97
2018-01-25T10:11:01.234Z,7.05
2018-01-25T10:13:28.998Z,5.15
2018-01-25T10:15:56.862Z,5.95
2018-01-25T10:18:24.626Z,6.37
2018-01-25T10:20:52.388Z,3.92
2018-01-25T10:23:20.256Z,4.85
2018-01-25T10:25:48.016Z,5.40
2018-01-25T10:28:15.780Z,5.45
2018-01-25T10:30:43.651Z,6.28
2018-01-25T10:33:11.510Z,6.93
2018-01-25T10:35:39.275Z,5.50
2018-01-25T10:38:07.140Z,5.00
2018-01-25T10:40:34.839Z,3.53
2018-01-25T10:43:03.331Z,6.07
2018-01-25T10:45:31.143Z,5.00
2018-01-25T10:47:58.843Z,6.78
2018-01-25T10:50:27.386Z,13.15
2018-01-25T10:52:55.252Z,5.05
2018-01-25T10:55:23.014Z,5.70
2018-01-25T10:57:50.779Z,4.37
2018-01-25T11:00:18.643Z,12.65
2018-01-25T11:02:46.406Z,8.80
2018-01-25T11:05:14.168Z,5.90
2018-01-25T11:07:42.033Z,10.38
2018-01-25T11:10:09.801Z,4.12
2018-01-25T11:12:37.662Z,3.28
2018-01-25T11:15:05.527Z,3.50
2018-01-25T11:17:33.290Z,4.18
2018-01-25T11:20:01.155Z,5.50
2018-01-25T11:22:28.971Z,4.45
2018-01-25T11:24:56.785Z,7.07
2018-01-25T11:27:24.649Z,5.70
2018-01-25T11:29:52.526Z,4.78
2018-01-25T11:32:20.277Z,7.12
2018-01-25T11:34:48.141Z,4.90
2018-01-25T11:37:15.905Z,4.75
2018-01-25T11:39:43.667Z,4.07
2018-01-25T11:42:11.435Z,3.40
2018-01-25T11:44:39.398Z,4.20
2018-01-25T11:47:07.307Z,4.70
2018-01-25T11:49:35.845Z,4.95
2018-01-25T11:52:03.612Z,4.10
2018-01-25T11:54:31.479Z,6.18
2018-01-25T11:56:59.239Z,4.45
2018-01-25T11:59:26.999Z,3.17
2018-01-25T12:01:54.865Z,7.47
2018-01-25T12:04:22.730Z,4.15
2018-01-25T12:06:50.596Z,8.27
2018-01-25T12:09:18.358Z,4.57
2018-01-25T12:11:46.121Z,4.07
2018-01-25T12:14:13.986Z,3.78
2018-01-25T12:16:41.749Z,4.95
2018-01-25T12:19:09.616Z,6.47
2018-01-25T12:21:37.377Z,5.93
2018-01-25T12:24:05.143Z,6.47
2018-01-25T12:26:32.943Z,5.80
2018-01-25T12:29:01.486Z,7.90
2018-01-25T12:31:29.248Z,6.45
2018-01-25T12:33:57.113Z,4.72
2018-01-25T12:36:24.815Z,6.00
2018-01-25T12:38:53.458Z,5.43
2018-01-25T12:41:21.223Z,4.05
2018-01-25T12:43:48.985Z,5.53
2018-01-25T12:46:16.850Z,4.55
2018-01-25T12:48:44.562Z,4.80
2018-01-25T12:51:12.376Z,5.32
2018-01-25T12:53:40.244Z,6.25
2018-01-25T12:56:08.004Z,6.65
2018-01-25T12:58:35.766Z,4.53
2018-01-25T13:01:03.632Z,4.20
2018-01-25T13:03:31.394Z,6.05
2018-01-25T13:05:59.106Z,3.80
2018-01-25T13:08:27.023Z,6.15
2018-01-25T13:10:54.787Z,3.90
2018-01-25T13:13:22.549Z,7.93
2018-01-25T13:15:50.311Z,5.18
2018-01-25T13:18:18.074Z,5.05
2018-01-25T13:20:45.940Z,8.27
2018-01-25T13:23:13.805Z,7.57
2018-01-25T13:25:41.570Z,5.72
2018-01-25T13:28:09.331Z,8.80
2018-01-25T13:30:37.196Z,7.03
2018-01-25T13:33:10.693Z,6.80
2018-01-25T13:35:38.764Z,5.78
2018-01-25T13:38:06.527Z,7.12
2018-01-25T13:40:34.393Z,4.00
2018-01-25T13:43:02.257Z,7.30
2018-01-25T13:45:30.021Z,5.35
2018-01-25T13:47:57.886Z,5.22
2018-01-25T13:50:25.648Z,5.65
2018-01-25T13:52:53.410Z,8.35
2018-01-25T13:55:21.278Z,5.45
2018-01-25T13:57:49.039Z,5.40
2018-01-25T14:00:16.802Z,3.33
2018-01-25T14:02:44.667Z,7.50
2018-01-25T14:05:13.984Z,4.35
2018-01-25T14:07:41.882Z,3.37
2018-01-25T14:10:09.799Z,5.68
2018-01-25T14:12:37.562Z,12.63
2018-01-25T14:15:05.328Z,4.95
2018-01-25T14:17:33.190Z,4.35
2018-01-25T14:20:00.953Z,5.07
2018-01-25T14:22:28.819Z,2.37
2018-01-25T14:24:56.683Z,5.80
2018-01-25T14:27:24.446Z,4.43
2018-01-25T14:29:52.312Z,7.70
2018-01-25T14:32:20.115Z,3.83
2018-01-25T14:34:48.658Z,4.30
2018-01-25T14:37:16.421Z,4.47
2018-01-25T14:39:44.215Z,9.57
2018-01-25T14:42:12.766Z,5.15
2018-01-25T14:44:40.630Z,6.82
2018-01-25T14:47:08.393Z,7.72
2018-01-25T14:49:36.156Z,6.68
2018-01-25T14:52:03.962Z,4.68
2018-01-25T14:54:32.500Z,4.62
2018-01-25T14:57:00.570Z,6.22
2018-01-25T14:59:28.338Z,10.25
2018-01-25T15:01:56.202Z,5.07
2018-01-25T15:04:24.068Z,5.75
2018-01-25T15:06:51.929Z,6.45
2018-01-25T15:09:19.795Z,4.20
2018-01-25T15:11:47.557Z,4.70
2018-01-25T15:14:15.322Z,5.12
2018-01-25T15:16:43.130Z,5.15
2018-01-25T15:19:11.666Z,7.43
2018-01-25T15:21:39.449Z,7.10
2018-01-25T15:24:07.293Z,5.93
2018-01-25T15:26:35.056Z,4.43
2018-01-25T15:29:02.921Z,6.40
2018-01-25T15:31:30.685Z,7.35
2018-01-25T15:33:58.447Z,7.37
2018-01-25T15:36:26.314Z,6.10
2018-01-25T15:38:54.178Z,24.63
2018-01-25T15:41:21.948Z,11.40
2018-01-25T15:43:49.987Z,11.88
2018-01-25T15:46:18.388Z,8.77
2018-01-25T15:48:46.154Z,6.03
2018-01-25T15:51:14.016Z,8.05
2018-01-25T15:53:41.779Z,5.87
2018-01-25T15:56:09.542Z,4.43
2018-01-25T15:58:37.407Z,5.07
2018-01-25T16:01:05.169Z,5.72
2018-01-25T16:03:33.138Z,9.25
2018-01-25T16:06:00.903Z,7.75
2018-01-25T16:08:28.663Z,9.50
2018-01-25T16:10:56.529Z,6.22
2018-01-25T16:13:24.292Z,7.40
2018-01-25T16:15:52.054Z,9.30
2018-01-25T16:18:19.920Z,8.98
2018-01-25T16:20:47.682Z,7.45
2018-01-25T16:23:15.446Z,10.38
2018-01-25T16:25:43.208Z,13.75
2018-01-25T16:28:10.972Z,9.30
2018-01-25T16:30:38.734Z,6.72
2018-01-25T16:33:06.599Z,7.90
2018-01-25T16:35:34.391Z,9.95
2018-01-25T16:38:02.945Z,8.13
2018-01-25T16:40:30.810Z,6.45
2018-01-25T16:42:58.572Z,15.10
2018-01-25T16:45:26.274Z,71.90
2018-01-25T16:47:54.815Z,93.90
2018-01-25T16:50:22.578Z,73.22
2018-01-25T16:52:50.443Z,17.17
2018-01-25T16:55:18.309Z,7.45
2018-01-25T16:57:46.071Z,8.68
2018-01-25T17:00:13.835Z,11.25
2018-01-25T17:02:41.700Z,6.10
2018-01-25T17:05:09.463Z,7.07
2018-01-25T17:07:37.328Z,8.10
2018-01-25T17:10:05.027Z,10.75
2018-01-25T17:12:33.576Z,15.10
2018-01-25T17:15:01.538Z,21.77
2018-01-25T17:17:29.301Z,13.98
2018-01-25T17:19:57.064Z,9.93
2018-01-25T17:22:24.929Z,17.65
2018-01-25T17:24:52.692Z,13.27
2018-01-25T17:27:20.456Z,9.15
2018-01-25T17:29:48.320Z,13.62
2018-01-25T17:32:16.083Z,11.90
2018-01-25T17:34:43.845Z,12.57
2018-01-25T17:37:11.725Z,12.93
2018-01-25T17:39:39.678Z,11.35
2018-01-25T17:42:07.384Z,15.88
2018-01-25T17:44:35.975Z,17.17
2018-01-25T17:47:03.787Z,9.38
2018-01-25T17:49:31.549Z,14.27
2018-01-25T17:51:59.415Z,11.43
2018-01-25T17:54:27.281Z,8.82
2018-01-25T17:56:55.146Z,10.18
2018-01-25T17:59:23.011Z,7.57
2018-01-25T18:01:50.773Z,6.53
2018-01-25T18:04:18.537Z,10.40
2018-01-25T18:06:46.401Z,8.43
2018-01-25T18:09:14.164Z,8.95
2018-01-25T18:11:41.883Z,14.63
2018-01-25T18:14:09.738Z,10.25
2018-01-25T18:16:38.272Z,6.03
2018-01-25T18:19:06.035Z,10.23
2018-01-25T18:21:33.903Z,12.40
2018-01-25T18:24:01.715Z,10.35
2018-01-25T18:26:29.528Z,15.98
2018-01-25T18:28:57.394Z,15.88
2018-01-25T18:31:25.157Z,8.13
2018-01-25T18:33:52.919Z,7.65
2018-01-25T18:36:20.784Z,8.73
2018-01-25T18:38:48.547Z,10.88
2018-01-25T18:41:16.412Z,10.32
2018-01-25T18:43:44.180Z,12.02
2018-01-25T18:46:12.041Z,9.40
2018-01-25T18:48:39.906Z,10.57
2018-01-25T18:51:07.668Z,9.88
2018-01-25T18:53:35.433Z,8.40
2018-01-25T18:56:03.297Z,12.88
2018-01-25T18:58:31.060Z,9.88
2018-01-25T19:00:58.925Z,9.63
2018-01-25T19:03:26.761Z,7.35
2018-01-25T19:05:54.467Z,8.98
2018-01-25T19:08:22.214Z,8.18
2018-01-25T19:10:49.977Z,6.43
2018-01-25T19:13:17.842Z,9.00
2018-01-25T19:15:45.605Z,23.17
2018-01-25T19:18:14.127Z,9.25
2018-01-25T19:20:42.771Z,7.15
2018-01-25T19:23:10.486Z,8.65
2018-01-25T19:25:38.242Z,8.32
2018-01-25T19:28:06.060Z,8.60
2018-01-25T19:30:33.824Z,7.70
2018-01-25T19:33:01.584Z,8.43
2018-01-25T19:35:29.449Z,7.70
2018-01-25T19:37:57.263Z,5.07
2018-01-25T19:40:25.077Z,5.70
2018-01-25T19:42:52.842Z,7.30
2018-01-25T19:45:20.602Z,6.70
2018-01-25T19:47:48.366Z,6.05
2018-01-25T19:50:16.078Z,11.68
2018-01-25T19:52:43.892Z,8.25
2018-01-25T19:55:11.756Z,11.90
2018-01-25T19:57:39.622Z,54.13
2018-01-25T20:00:07.487Z,61.10
2018-01-25T20:02:35.250Z,37.97
2018-01-25T20:05:03.013Z,20.08
2018-01-25T20:07:30.877Z,9.13
2018-01-25T20:09:58.743Z,9.38
2018-01-25T20:12:26.507Z,7.85
2018-01-25T20:14:54.371Z,8.88
2018-01-25T20:17:22.442Z,8.70
2018-01-25T20:19:50.355Z,8.95
2018-01-25T20:22:18.119Z,5.50
2018-01-25T20:24:46.652Z,9.30
2018-01-25T20:27:14.517Z,10.48
2018-01-25T20:29:42.280Z,7.80
2018-01-25T20:32:10.043Z,8.80
2018-01-25T20:34:37.860Z,14.20
2018-01-25T20:37:05.619Z,14.25
2018-01-25T20:39:33.434Z,12.27
2018-01-25T20:42:01.301Z,8.32
2018-01-25T20:44:29.165Z,9.30
2018-01-25T20:46:56.928Z,7.90
2018-01-25T20:49:24.691Z,9.27
2018-01-25T20:51:52.556Z,9.48
2018-01-25T20:54:21.241Z,8.32
2018-01-25T20:56:49.147Z,9.93
2018-01-25T20:59:17.688Z,9.43
2018-01-25T21:01:45.451Z,8.20
2018-01-25T21:04:13.316Z,9.38
2018-01-25T21:06:41.079Z,7.62
2018-01-25T21:09:11.458Z,10.45
2018-01-25T21:11:39.472Z,9.40
2018-01-25T21:14:07.280Z,11.70
2018-01-25T21:16:35.919Z,9.10
2018-01-25T21:19:03.682Z,9.68
2018-01-25T21:21:31.599Z,7.57
2018-01-25T21:23:59.416Z,16.95
2018-01-25T21:26:27.176Z,9.48
2018-01-25T21:28:55.044Z,14.87
2018-01-25T21:31:22.804Z,8.68
2018-01-25T21:33:50.670Z,9.70
2018-01-25T21:36:18.538Z,8.52
2018-01-25T21:38:46.300Z,9.13
2018-01-25T21:41:14.065Z,8.20
2018-01-25T21:43:41.926Z,9.43
2018-01-25T21:46:09.793Z,9.50
2018-01-25T21:48:37.628Z,10.60
2018-01-25T21:51:05.419Z,7.75
2018-01-25T21:53:33.285Z,7.90
2018-01-25T21:56:01.047Z,7.68
2018-01-25T21:58:28.811Z,8.43
2018-01-25T22:00:56.676Z,10.30
2018-01-25T22:03:24.466Z,12.57
2018-01-25T22:05:53.020Z,9.68
2018-01-25T22:08:20.893Z,10.07
2018-01-25T22:10:48.650Z,9.45
2018-01-25T22:13:16.421Z,8.18
2018-01-25T22:15:44.278Z,5.40
2018-01-25T22:18:12.143Z,10.35
2018-01-25T22:20:39.909Z,9.27
2018-01-25T22:23:07.718Z,9.15
2018-01-25T22:25:37.792Z,15.18
2018-01-25T22:28:06.471Z,10.55
2018-01-25T22:30:34.235Z,11.77
2018-01-25T22:33:01.997Z,9.27
2018-01-25T22:35:29.862Z,8.30
2018-01-25T22:37:57.625Z,9.88
2018-01-25T22:40:25.387Z,10.38
2018-01-25T22:42:53.253Z,10.60
2018-01-25T22:45:21.016Z,13.62
2018-01-25T22:47:48.779Z,11.85
2018-01-25T22:50:16.644Z,13.55
2018-01-25T22:52:44.406Z,9.10
2018-01-25T22:55:12.170Z,14.07
2018-01-25T22:57:40.038Z,14.13
2018-01-25T23:00:07.798Z,11.77
2018-01-25T23:02:35.560Z,11.70
2018-01-25T23:05:03.430Z,14.00
2018-01-25T23:07:31.138Z,9.35
2018-01-25T23:09:59.670Z,10.05
2018-01-25T23:12:27.535Z,11.43
2018-01-25T23:14:55.298Z,11.40
2018-01-25T23:17:23.060Z,9.85
2018-01-25T23:19:50.926Z,9.50
2018-01-25T23:22:18.688Z,10.32
2018-01-25T23:24:46.451Z,10.73
2018-01-25T23:27:14.317Z,10.25
2018-01-25T23:29:42.080Z,14.27
